Time;durP1;ratioP1;P1;durP2;ratioP2;P2;SDS_P1;SDS_P2;PMS_P1;PMS_P2;Temp;Humidity;BMP_temperature;BMP_pressure;BME280_temperature;BME280_humidity;BME280_pressure;Samples;Min_cycle;Max_cycle;Signal;HPM_P1;HPM_P2
2024/03/05 00:00:58;;;;;;;10.85;3.95;;;6.40;99.90;;;;;;5086544;28;20092;-73
2024/03/05 00:03:24;;;;;;;9.98;3.92;;;6.40;99.90;;;;;;5080422;28;20036;-73
2024/03/05 00:05:50;;;;;;;10.85;4.93;;;6.40;99.90;;;;;;5084386;28;20047;-73
2024/03/05 00:08:16;;;;;;;10.65;4.05;;;6.40;99.90;;;;;;5080134;28;20039;-74
2024/03/05 00:10:41;;;;;;;9.93;4.35;;;6.40;99.90;;;;;;5091381;28;20069;-73
2024/03/05 00:13:07;;;;;;;10.90;4.65;;;6.30;99.90;;;;;;5091750;28;20097;-74
2024/03/05 00:15:33;;;;;;;9.60;4.13;;;6.30;99.90;;;;;;5093882;28;20091;-72
2024/03/05 00:17:58;;;;;;;10.85;4.65;;;6.30;99.90;;;;;;5094197;28;20042;-73
2024/03/05 00:20:24;;;;;;;11.32;4.68;;;6.30;99.90;;;;;;5092215;28;20031;-73
2024/03/05 00:22:50;;;;;;;11.02;4.13;;;6.30;99.90;;;;;;5087436;28;20020;-73
2024/03/05 00:25:19;;;;;;;14.90;4.47;;;6.30;99.90;;;;;;5105264;28;20104;-73
2024/03/05 00:27:44;;;;;;;8.45;4.15;;;6.30;99.90;;;;;;5077304;28;20513;-74
2024/03/05 00:30:13;;;;;;;13.55;5.20;;;6.30;99.90;;;;;;5102912;28;20028;-71
2024/03/05 00:32:39;;;;;;;8.80;4.60;;;6.20;99.90;;;;;;5085764;28;20019;-73
2024/03/05 00:35:05;;;;;;;9.45;4.25;;;6.20;99.90;;;;;;5081100;28;20364;-73
2024/03/05 00:37:31;;;;;;;10.00;4.30;;;6.20;99.90;;;;;;5102626;28;20031;-72
2024/03/05 00:39:57;;;;;;;12.43;3.90;;;6.20;99.90;;;;;;5085994;28;20032;-72
2024/03/05 00:42:22;;;;;;;13.52;6.07;;;6.20;99.90;;;;;;5082067;28;20839;-75
2024/03/05 00:44:48;;;;;;;16.05;4.55;;;6.20;99.90;;;;;;5085103;28;20556;-74
2024/03/05 00:47:13;;;;;;;10.30;4.55;;;6.20;99.90;;;;;;5085894;28;20063;-74
2024/03/05 00:49:39;;;;;;;10.10;4.13;;;6.20;99.90;;;;;;5083294;28;20047;-74
2024/03/05 00:52:05;;;;;;;13.95;4.60;;;6.20;99.90;;;;;;5103357;28;20042;-74
2024/03/05 00:54:30;;;;;;;11.23;5.22;;;6.10;99.90;;;;;;5101670;28;20023;-74
2024/03/05 00:56:56;;;;;;;11.77;5.65;;;6.10;99.90;;;;;;5087601;28;20122;-72
2024/03/05 00:59:22;;;;;;;9.32;4.30;;;6.10;99.90;;;;;;5088842;28;20378;-73
2024/03/05 01:01:48;;;;;;;13.82;5.18;;;6.00;99.90;;;;;;5083842;28;20057;-72
2024/03/05 01:04:14;;;;;;;16.17;5.13;;;6.00;99.90;;;;;;5088162;28;20110;-73
2024/03/05 01:06:43;;;;;;;13.82;5.40;;;6.00;99.90;;;;;;5109104;28;20111;-72
2024/03/05 01:09:15;;;;;;;10.32;4.65;;;6.10;99.90;;;;;;5089762;28;20016;-71
2024/03/05 01:11:41;;;;;;;9.55;4.55;;;6.10;99.90;;;;;;5088055;28;20556;-73
2024/03/05 01:14:07;;;;;;;11.85;4.35;;;6.10;99.90;;;;;;5090450;28;20063;-74
2024/03/05 01:16:32;;;;;;;10.93;3.95;;;6.10;99.90;;;;;;5088081;28;20054;-73
2024/03/05 01:18:59;;;;;;;10.60;4.38;;;6.10;99.90;;;;;;5090498;28;20048;-74
2024/03/05 01:21:25;;;;;;;13.05;4.82;;;6.10;99.90;;;;;;5106869;28;20046;-72
2024/03/05 01:23:51;;;;;;;11.25;4.70;;;6.10;99.90;;;;;;5108766;28;20097;-74
2024/03/05 01:26:17;;;;;;;10.15;4.55;;;6.10;99.90;;;;;;5086491;28;20031;-74
2024/03/05 01:28:43;;;;;;;12.20;5.70;;;6.00;99.90;;;;;;5099151;28;20055;-73
2024/03/05 01:31:08;;;;;;;16.73;4.82;;;6.00;99.90;;;;;;5108697;28;20130;-74
2024/03/05 01:33:36;;;;;;;9.80;3.83;;;6.00;99.90;;;;;;5090046;28;20460;-74
2024/03/05 01:36:03;;;;;;;15.25;5.18;;;6.10;99.90;;;;;;5090764;28;20077;-73
2024/03/05 01:38:29;;;;;;;10.30;4.07;;;6.10;99.90;;;;;;5089224;28;20031;-73
2024/03/05 01:40:55;;;;;;;8.82;4.72;;;6.00;99.90;;;;;;5092263;28;20035;-74
2024/03/05 01:43:21;;;;;;;19.27;4.80;;;6.00;99.90;;;;;;5108041;28;20096;-73
2024/03/05 01:45:48;;;;;;;21.02;5.35;;;6.00;99.90;;;;;;5102327;28;20055;-74
2024/03/05 01:48:16;;;;;;;11.15;4.88;;;6.00;99.90;;;;;;5087932;28;20078;-73
2024/03/05 01:50:44;;;;;;;18.52;5.72;;;6.00;99.90;;;;;;5090394;28;20042;-73
2024/03/05 01:53:14;;;;;;;9.25;4.63;;;6.00;99.90;;;;;;5114022;28;20032;-72
2024/03/05 01:55:40;;;;;;;11.07;5.18;;;6.00;99.90;;;;;;5099679;28;20088;-74
2024/03/05 01:58:08;;;;;;;11.57;5.03;;;6.00;99.90;;;;;;5117161;28;20031;-73
2024/03/05 02:00:36;;;;;;;11.73;4.75;;;5.90;99.90;;;;;;5091487;28;20036;-73
2024/03/05 02:03:02;;;;;;;14.43;5.18;;;6.00;99.90;;;;;;5086737;28;20163;-73
2024/03/05 02:05:28;;;;;;;15.63;5.55;;;5.90;99.90;;;;;;5097816;28;20031;-74
2024/03/05 02:07:54;;;;;;;11.43;5.25;;;5.90;99.90;;;;;;5087680;28;20555;-73
2024/03/05 02:10:20;;;;;;;11.80;4.95;;;6.00;99.90;;;;;;5103771;28;20032;-73
2024/03/05 02:12:46;;;;;;;11.48;4.80;;;5.90;99.90;;;;;;5080950;28;20028;-73
2024/03/05 02:15:11;;;;;;;14.40;5.20;;;5.90;99.90;;;;;;5109572;28;20387;-72
2024/03/05 02:17:39;;;;;;;12.98;4.60;;;6.00;99.90;;;;;;5085877;28;20024;-73
2024/03/05 02:20:09;;;;;;;15.18;5.25;;;5.90;99.90;;;;;;5086891;28;20095;-73
2024/03/05 02:22:37;;;;;;;10.98;5.13;;;5.90;99.90;;;;;;5080975;28;20081;-73
2024/03/05 02:25:03;;;;;;;13.10;5.57;;;5.90;99.90;;;;;;5085200;28;20059;-73
2024/03/05 02:27:29;;;;;;;14.60;5.60;;;5.80;99.90;;;;;;5100421;28;20487;-74
2024/03/05 02:29:55;;;;;;;15.13;5.60;;;5.80;99.90;;;;;;5090702;28;20034;-73
2024/03/05 02:32:21;;;;;;;17.52;6.45;;;5.80;99.90;;;;;;5083203;28;20407;-73
2024/03/05 02:34:48;;;;;;;15.15;6.72;;;5.80;99.90;;;;;;5079935;28;20052;-73
2024/03/05 02:37:14;;;;;;;21.17;6.68;;;5.80;99.90;;;;;;5091010;28;20023;-73
2024/03/05 02:39:40;;;;;;;15.55;6.30;;;5.70;99.90;;;;;;5084295;28;20157;-73
2024/03/05 02:42:05;;;;;;;18.85;6.63;;;5.70;99.90;;;;;;5083686;28;20036;-73
2024/03/05 02:44:31;;;;;;;16.48;7.07;;;5.80;99.90;;;;;;5103005;28;20039;-72
2024/03/05 02:46:56;;;;;;;17.25;7.05;;;5.70;99.90;;;;;;5097115;28;20146;-74
2024/03/05 02:49:22;;;;;;;24.80;9.57;;;5.70;99.90;;;;;;5101346;28;20034;-73
2024/03/05 02:51:47;;;;;;;20.95;7.50;;;5.80;99.90;;;;;;5088063;28;20403;-74
2024/03/05 02:54:14;;;;;;;23.50;7.93;;;5.80;99.90;;;;;;5089085;28;20054;-73
2024/03/05 02:56:39;;;;;;;19.85;8.23;;;5.80;99.90;;;;;;5092458;28;20531;-73
2024/03/05 02:59:05;;;;;;;19.92;8.38;;;5.80;99.90;;;;;;5085057;28;20039;-72
2024/03/05 03:01:30;;;;;;;19.80;7.78;;;5.70;99.90;;;;;;5081471;28;20032;-73
2024/03/05 03:03:56;;;;;;;21.20;8.57;;;5.80;99.90;;;;;;5084952;28;20027;-73
2024/03/05 03:06:22;;;;;;;19.33;8.02;;;5.80;99.90;;;;;;5084160;28;20165;-73
2024/03/05 03:08:47;;;;;;;24.58;9.75;;;5.90;99.90;;;;;;5102382;28;20039;-73
2024/03/05 03:11:17;;;;;;;25.33;9.93;;;5.90;99.90;;;;;;5086422;28;20372;-75
2024/03/05 03:13:44;;;;;;;23.92;9.80;;;5.90;99.90;;;;;;5085668;28;20039;-72
2024/03/05 03:16:09;;;;;;;26.30;9.60;;;5.90;99.90;;;;;;5090431;28;20039;-73
2024/03/05 03:18:36;;;;;;;24.98;10.18;;;5.90;99.90;;;;;;5083368;28;20040;-72
2024/03/05 03:21:03;;;;;;;20.15;8.73;;;6.00;99.90;;;;;;5085913;28;20035;-73
2024/03/05 03:23:28;;;;;;;31.73;12.05;;;6.00;99.90;;;;;;5102247;28;20032;-72
2024/03/05 03:25:54;;;;;;;28.33;10.98;;;6.00;99.90;;;;;;5087905;28;20054;-72
2024/03/05 03:28:19;;;;;;;30.85;12.50;;;6.00;99.90;;;;;;5087159;28;20118;-72
2024/03/05 03:30:45;;;;;;;28.10;10.68;;;6.00;99.90;;;;;;5102343;28;20042;-73
2024/03/05 03:33:10;;;;;;;31.48;10.85;;;6.00;99.90;;;;;;5087198;28;20104;-73
2024/03/05 03:35:37;;;;;;;31.33;12.18;;;6.00;99.90;;;;;;5108151;28;20040;-73
2024/03/05 03:38:03;;;;;;;28.85;10.10;;;6.00;99.90;;;;;;5089204;28;20112;-73
2024/03/05 03:40:33;;;;;;;30.23;11.80;;;6.10;99.90;;;;;;5086061;28;20032;-74
2024/03/05 03:42:58;;;;;;;31.15;9.65;;;6.10;99.90;;;;;;5086909;28;20028;-73
2024/03/05 03:45:24;;;;;;;32.95;12.02;;;6.10;99.90;;;;;;5088077;28;20031;-73
2024/03/05 03:47:50;;;;;;;26.92;9.98;;;6.10;99.90;;;;;;5087294;28;20032;-72
2024/03/05 03:50:16;;;;;;;35.95;10.18;;;6.10;99.90;;;;;;5086453;28;20402;-73
2024/03/05 03:52:43;;;;;;;26.90;10.30;;;6.20;99.90;;;;;;5080720;28;20039;-74
2024/03/05 03:55:09;;;;;;;23.77;10.45;;;6.10;99.90;;;;;;5104918;28;20518;-72
2024/03/05 03:57:35;;;;;;;24.48;10.32;;;6.10;99.90;;;;;;5088110;28;20074;-72
2024/03/05 04:00:07;;;;;;;22.88;9.10;;;6.20;99.90;;;;;;5086831;28;20039;-73
2024/03/05 04:02:35;;;;;;;26.30;10.60;;;6.10;99.90;;;;;;5085301;28;20406;-73
2024/03/05 04:05:04;;;;;;;25.70;9.48;;;6.20;99.90;;;;;;5086824;28;20031;-73
2024/03/05 04:07:32;;;;;;;24.48;9.38;;;6.20;99.90;;;;;;5084219;28;20043;-73
2024/03/05 04:10:00;;;;;;;23.00;9.65;;;6.20;99.90;;;;;;5097947;27;20042;-73
2024/03/05 04:12:26;;;;;;;24.88;8.63;;;6.20;99.90;;;;;;5079328;28;20093;-72
2024/03/05 04:14:52;;;;;;;20.13;8.63;;;6.20;99.90;;;;;;5084215;28;20139;-73
2024/03/05 04:17:19;;;;;;;28.77;9.43;;;6.20;99.90;;;;;;5087683;28;20447;-72
2024/03/05 04:19:45;;;;;;;26.33;9.95;;;6.20;99.90;;;;;;5085813;28;20053;-73
2024/03/05 04:22:14;;;;;;;23.08;9.40;;;6.30;99.90;;;;;;5087022;28;20505;-73
2024/03/05 04:24:42;;;;;;;27.60;8.77;;;6.20;99.90;;;;;;5105146;28;20096;-75
2024/03/05 04:27:11;;;;;;;25.00;10.15;;;6.30;99.90;;;;;;5091773;28;20567;-73
2024/03/05 04:29:41;;;;;;;23.27;9.65;;;6.20;99.90;;;;;;5079958;28;20028;-72
2024/03/05 04:32:10;;;;;;;20.45;8.50;;;6.30;99.90;;;;;;5103018;28;20028;-73
2024/03/05 04:34:36;;;;;;;24.15;9.60;;;6.30;99.90;;;;;;5081919;28;20096;-73
2024/03/05 04:37:02;;;;;;;27.13;10.95;;;6.20;99.90;;;;;;5086124;28;20110;-73
2024/03/05 04:39:27;;;;;;;26.35;9.50;;;6.20;99.90;;;;;;5103775;28;20107;-72
2024/03/05 04:41:53;;;;;;;25.65;10.80;;;6.30;99.90;;;;;;5086491;28;20036;-73
2024/03/05 04:44:19;;;;;;;21.63;9.60;;;6.20;99.90;;;;;;5106464;28;20030;-74
2024/03/05 04:46:44;;;;;;;25.02;9.70;;;6.30;99.90;;;;;;5097841;28;20431;-72
2024/03/05 04:49:10;;;;;;;24.35;8.65;;;6.30;99.90;;;;;;5087981;28;20028;-73
2024/03/05 04:51:35;;;;;;;24.02;8.75;;;6.30;99.90;;;;;;5084106;28;20046;-72
2024/03/05 04:54:01;;;;;;;26.75;10.05;;;6.30;99.90;;;;;;5089130;28;20056;-71
2024/03/05 04:56:27;;;;;;;30.88;9.20;;;6.30;99.90;;;;;;5104053;28;20047;-70
2024/03/05 04:58:52;;;;;;;23.88;9.93;;;6.30;99.90;;;;;;5089505;28;20440;-71
2024/03/05 05:01:18;;;;;;;24.80;9.85;;;6.30;99.90;;;;;;5104447;28;20030;-72
2024/03/05 05:03:44;;;;;;;23.55;10.73;;;6.40;99.90;;;;;;5081488;28;20046;-72
2024/03/05 05:06:10;;;;;;;30.08;9.90;;;6.40;99.90;;;;;;5085140;28;20126;-71
2024/03/05 05:08:36;;;;;;;25.02;9.68;;;6.40;99.90;;;;;;5089199;28;20043;-73
2024/03/05 05:11:02;;;;;;;29.25;10.80;;;6.40;99.90;;;;;;5107920;28;20036;-72
2024/03/05 05:13:27;;;;;;;28.33;11.82;;;6.40;99.90;;;;;;5105772;28;20051;-71
2024/03/05 05:15:54;;;;;;;30.35;11.23;;;6.50;99.90;;;;;;5089097;28;20032;-73
2024/03/05 05:18:20;;;;;;;23.90;10.00;;;6.50;99.90;;;;;;5109968;28;20053;-70
2024/03/05 05:20:46;;;;;;;26.67;10.95;;;6.50;99.90;;;;;;5102559;28;20040;-71
2024/03/05 05:23:11;;;;;;;30.52;10.32;;;6.60;99.90;;;;;;5086899;28;20455;-72
2024/03/05 05:25:37;;;;;;;27.50;10.70;;;6.60;99.90;;;;;;5104919;28;20063;-73
2024/03/05 05:28:06;;;;;;;28.40;10.30;;;6.50;99.90;;;;;;5097561;28;20127;-73
2024/03/05 05:30:32;;;;;;;25.15;10.65;;;6.50;99.90;;;;;;5097022;28;20084;-72
2024/03/05 05:32:58;;;;;;;29.85;11.63;;;6.60;99.90;;;;;;5080104;28;20040;-72
2024/03/05 05:35:23;;;;;;;26.17;10.25;;;6.60;99.90;;;;;;5099661;28;20040;-73
2024/03/05 05:37:49;;;;;;;30.10;10.10;;;6.60;99.90;;;;;;5099846;28;20077;-75
2024/03/05 05:40:18;;;;;;;30.27;11.13;;;6.60;99.90;;;;;;5081060;28;20031;-71
2024/03/05 05:42:48;;;;;;;28.00;10.98;;;6.70;99.90;;;;;;5101641;28;20047;-72
2024/03/05 05:45:14;;;;;;;30.77;11.35;;;6.60;99.90;;;;;;5079804;28;20063;-72
2024/03/05 05:47:53;;;;;;;31.15;10.40;;;6.60;99.90;;;;;;5097684;28;20055;-73
2024/03/05 05:50:22;;;;;;;33.28;10.95;;;6.60;99.90;;;;;;5101333;28;20034;-71
2024/03/05 05:52:54;;;;;;;26.88;10.02;;;6.60;99.90;;;;;;5076988;28;20031;-70
2024/03/05 05:55:24;;;;;;;29.10;11.77;;;6.60;99.90;;;;;;5080082;28;20024;-71
2024/03/05 05:57:51;;;;;;;28.73;11.70;;;6.60;99.90;;;;;;5104583;28;20023;-72
2024/03/05 06:00:31;;;;;;;31.70;12.73;;;6.70;99.90;;;;;;5088238;28;20035;-70
2024/03/05 06:02:58;;;;;;;31.08;11.98;;;6.80;99.90;;;;;;5107159;28;20118;-71
2024/03/05 06:05:26;;;;;;;31.38;12.43;;;6.90;99.90;;;;;;5091763;28;20034;-71
2024/03/05 06:07:52;;;;;;;34.97;12.38;;;6.90;99.90;;;;;;5110279;28;20061;-73
2024/03/05 06:10:18;;;;;;;31.73;11.50;;;6.90;99.90;;;;;;5084709;28;20425;-72
2024/03/05 06:12:45;;;;;;;31.70;13.50;;;6.90;99.90;;;;;;5087346;28;20031;-71
2024/03/05 06:15:11;;;;;;;34.15;12.20;;;6.90;99.90;;;;;;5088112;28;20111;-72
2024/03/05 06:17:39;;;;;;;29.35;12.15;;;6.90;99.90;;;;;;5105953;28;20054;-73
2024/03/05 06:20:10;;;;;;;32.88;11.98;;;6.90;99.90;;;;;;5105425;28;20035;-72
2024/03/05 06:22:37;;;;;;;28.58;11.77;;;6.90;99.90;;;;;;5087794;28;20445;-72
2024/03/05 06:25:03;;;;;;;35.88;12.88;;;7.00;99.90;;;;;;5102229;28;20044;-71
2024/03/05 06:27:28;;;;;;;27.80;11.52;;;7.00;99.90;;;;;;5081156;28;20058;-72
2024/03/05 06:29:54;;;;;;;32.42;12.55;;;7.00;99.90;;;;;;5103179;28;20101;-73
2024/03/05 06:32:20;;;;;;;26.25;11.80;;;7.00;99.90;;;;;;5102009;28;20024;-72
2024/03/05 06:34:46;;;;;;;28.75;9.52;;;7.00;99.90;;;;;;5104057;28;20036;-72
2024/03/05 06:37:11;;;;;;;32.40;12.38;;;7.00;99.90;;;;;;5087838;28;20032;-72
2024/03/05 06:39:41;;;;;;;29.25;11.38;;;7.00;99.90;;;;;;5103538;28;20027;-72
2024/03/05 06:42:10;;;;;;;29.75;11.85;;;7.00;99.90;;;;;;5086850;28;20598;-74
2024/03/05 06:44:36;;;;;;;27.33;10.60;;;7.00;99.90;;;;;;5082140;28;20122;-71
2024/03/05 06:47:04;;;;;;;28.58;12.15;;;6.90;99.90;;;;;;5097239;28;20036;-72
2024/03/05 06:49:38;;;;;;;30.60;11.40;;;6.90;99.90;;;;;;5076299;28;20388;-74
2024/03/05 06:57:33;;;;;;;28.92;12.77;;;6.90;99.90;;;;;;5108918;28;20502;-71
2024/03/05 06:59:59;;;;;;;36.03;13.02;;;6.90;99.90;;;;;;5110002;28;20047;-72
2024/03/05 07:02:30;;;;;;;33.88;12.73;;;7.00;99.90;;;;;;5080679;28;20028;-72
2024/03/05 07:04:56;;;;;;;;;;;7.00;99.90;;;;;;5099351;28;20420;-72
2024/03/05 07:07:22;;;;;;;40.88;13.40;;;7.00;99.90;;;;;;5100757;28;20364;-73
2024/03/05 07:09:47;;;;;;;33.10;12.95;;;7.00;99.90;;;;;;5103502;28;20059;-71
2024/03/05 07:12:13;;;;;;;30.15;12.23;;;7.10;99.90;;;;;;5105220;28;20122;-71
2024/03/05 07:14:42;;;;;;;45.45;13.77;;;7.00;99.90;;;;;;5102375;28;20080;-73
2024/03/05 07:17:08;;;;;;;42.45;14.32;;;7.00;99.90;;;;;;5086846;28;20031;-73
2024/03/05 07:19:34;;;;;;;42.00;13.95;;;7.10;99.90;;;;;;5088573;28;20047;-73
2024/03/05 07:22:00;;;;;;;37.67;13.38;;;7.10;99.90;;;;;;5082451;28;20032;-73
2024/03/05 07:24:28;;;;;;;49.33;14.20;;;7.10;99.90;;;;;;5100825;28;20545;-73
2024/03/05 07:26:54;;;;;;;38.63;13.80;;;7.20;99.90;;;;;;5086935;28;20440;-77
2024/03/05 07:29:20;;;;;;;37.60;14.38;;;7.20;99.90;;;;;;5087124;28;20040;-72
2024/03/05 07:31:49;;;;;;;38.05;15.43;;;7.30;99.90;;;;;;5084888;28;20076;-72
2024/03/05 07:34:15;;;;;;;37.30;14.27;;;7.30;99.90;;;;;;5083915;28;20040;-73
2024/03/05 07:36:43;;;;;;;40.72;13.90;;;7.40;99.90;;;;;;5086496;28;20042;-73
2024/03/05 07:39:11;;;;;;;38.45;13.20;;;7.40;99.90;;;;;;5081251;28;20563;-72
2024/03/05 07:41:39;;;;;;;36.70;12.82;;;7.40;99.90;;;;;;5085522;28;20027;-72
2024/03/05 07:44:05;;;;;;;42.25;14.00;;;7.40;99.90;;;;;;5086339;28;20037;-73
2024/03/05 07:46:32;;;;;;;34.72;13.70;;;7.50;99.90;;;;;;5086878;28;20039;-73
2024/03/05 07:48:58;;;;;;;38.55;13.32;;;7.40;99.90;;;;;;5091923;28;20027;-72
2024/03/05 07:51:23;;;;;;;40.75;14.63;;;7.50;99.90;;;;;;5105029;28;20100;-72
2024/03/05 07:53:49;;;;;;;38.20;13.77;;;7.40;99.90;;;;;;5104846;28;20058;-72
2024/03/05 07:56:14;;;;;;;38.78;14.15;;;7.40;99.90;;;;;;5104160;28;20039;-74
2024/03/05 07:58:40;;;;;;;37.50;13.70;;;7.40;99.90;;;;;;5105117;28;20049;-73
2024/03/05 08:01:06;;;;;;;36.17;13.75;;;7.40;99.90;;;;;;5081617;28;20039;-73
2024/03/05 08:03:32;;;;;;;44.83;13.63;;;7.40;99.90;;;;;;5080338;28;20071;-72
2024/03/05 08:05:58;;;;;;;41.78;15.48;;;7.40;99.90;;;;;;5084551;28;20066;-73
2024/03/05 08:08:25;;;;;;;34.50;14.90;;;7.40;99.90;;;;;;5086225;28;20028;-73
2024/03/05 08:10:51;;;;;;;39.60;14.52;;;7.30;99.90;;;;;;5085449;28;20039;-72
2024/03/05 08:13:19;;;;;;;49.15;14.30;;;7.30;99.90;;;;;;5083818;28;20483;-72
2024/03/05 08:15:44;;;;;;;38.80;14.40;;;7.30;99.90;;;;;;5102049;28;20027;-73
2024/03/05 08:18:12;;;;;;;39.10;15.30;;;7.40;99.90;;;;;;5085034;28;20465;-72
2024/03/05 08:20:38;;;;;;;38.22;15.25;;;7.40;99.90;;;;;;5101681;28;20043;-72
2024/03/05 08:23:04;;;;;;;39.75;14.82;;;7.30;99.90;;;;;;5078476;28;20088;-73
2024/03/05 08:25:29;;;;;;;45.40;14.73;;;7.30;99.90;;;;;;5101051;27;20042;-73
2024/03/05 08:27:58;;;;;;;38.95;14.55;;;7.40;99.90;;;;;;5082345;28;20611;-73
2024/03/05 08:30:31;;;;;;;45.78;15.70;;;7.30;99.90;;;;;;5082875;28;20047;-73
2024/03/05 08:32:57;;;;;;;40.38;14.60;;;7.40;99.90;;;;;;5091287;28;20220;-72
2024/03/05 08:35:25;;;;;;;46.88;16.05;;;7.40;99.90;;;;;;5109988;27;20497;-72
2024/03/05 08:37:51;;;;;;;46.47;15.75;;;7.40;99.90;;;;;;5112537;28;20034;-72
2024/03/05 08:40:19;;;;;;;47.28;17.15;;;7.40;99.90;;;;;;5091742;28;20035;-73
2024/03/05 08:42:47;;;;;;;39.22;14.90;;;7.50;99.90;;;;;;5104418;28;20121;-73
2024/03/05 08:45:15;;;;;;;46.33;16.85;;;7.40;99.90;;;;;;5089797;28;20027;-73
2024/03/05 08:47:46;;;;;;;42.80;14.70;;;7.50;99.90;;;;;;5084593;28;20050;-72
2024/03/05 08:50:12;;;;;;;38.53;15.05;;;7.50;99.90;;;;;;5089474;28;20518;-72
2024/03/05 08:52:41;;;;;;;38.90;14.60;;;7.50;99.90;;;;;;5087184;28;20035;-73
2024/03/05 08:55:11;;;;;;;37.70;14.68;;;7.40;99.90;;;;;;5088248;28;20052;-72
2024/03/05 08:57:37;;;;;;;45.13;15.25;;;7.40;99.90;;;;;;5089548;28;20038;-72
2024/03/05 09:00:08;;;;;;;42.40;16.77;;;7.40;99.90;;;;;;5089382;28;20104;-73
2024/03/05 09:02:34;;;;;;;44.75;15.65;;;7.50;99.90;;;;;;5090255;28;20046;-72
2024/03/05 09:05:02;;;;;;;41.85;15.35;;;7.50;99.90;;;;;;5102152;28;20052;-73
2024/03/05 09:07:28;;;;;;;44.63;15.48;;;7.50;99.90;;;;;;5079901;28;20032;-73
2024/03/05 09:09:54;;;;;;;36.20;13.15;;;7.50;99.90;;;;;;5105631;28;20032;-72
2024/03/05 09:12:19;;;;;;;40.53;15.43;;;7.50;99.90;;;;;;5105888;28;20059;-72
2024/03/05 09:14:45;;;;;;;47.17;15.93;;;7.60;99.90;;;;;;5104527;28;20070;-72
2024/03/05 09:17:11;;;;;;;36.22;14.25;;;7.60;99.90;;;;;;5086140;28;20058;-72
2024/03/05 09:19:36;;;;;;;42.67;14.90;;;7.60;99.90;;;;;;5083836;28;20112;-72
2024/03/05 09:22:05;;;;;;;44.67;15.35;;;7.60;99.90;;;;;;5104321;28;20038;-72
2024/03/05 09:24:32;;;;;;;36.92;14.63;;;7.50;99.90;;;;;;5081154;28;20027;-73
2024/03/05 09:26:59;;;;;;;42.78;15.07;;;7.60;99.90;;;;;;5088675;28;20035;-72
2024/03/05 09:29:25;;;;;;;42.25;16.10;;;7.60;99.90;;;;;;5091216;27;20077;-72
2024/03/05 09:31:50;;;;;;;38.25;15.93;;;7.70;99.90;;;;;;5111784;27;20442;-72
2024/03/05 09:34:16;;;;;;;39.47;15.68;;;7.70;99.90;;;;;;5089870;27;20031;-72
2024/03/05 09:36:42;;;;;;;40.78;14.48;;;7.70;99.90;;;;;;5089827;27;20524;-73
2024/03/05 09:39:09;;;;;;;41.42;15.77;;;7.70;99.90;;;;;;5110508;27;20065;-71
2024/03/05 09:41:41;;;;;;;37.70;15.18;;;7.70;99.90;;;;;;5085396;28;20028;-72
2024/03/05 09:44:07;;;;;;;43.80;15.32;;;7.70;99.90;;;;;;5110591;27;20277;-72
2024/03/05 09:46:36;;;;;;;40.80;14.75;;;7.80;99.90;;;;;;5088802;28;20032;-72
2024/03/05 09:49:03;;;;;;;41.40;16.08;;;7.80;99.90;;;;;;5093724;28;20046;-72
2024/03/05 09:51:29;;;;;;;43.30;14.40;;;7.80;99.90;;;;;;5084202;28;20039;-74
2024/03/05 09:53:56;;;;;;;35.85;14.90;;;7.80;99.90;;;;;;5110276;27;20065;-73
2024/03/05 09:56:22;;;;;;;35.40;13.70;;;7.90;99.90;;;;;;5091613;28;20039;-72
2024/03/05 09:58:48;;;;;;;35.53;14.52;;;7.90;99.90;;;;;;5101977;27;20255;-71
2024/03/05 10:01:14;;;;;;;43.33;14.80;;;8.00;99.90;;;;;;5085866;27;20350;-72
2024/03/05 10:03:40;;;;;;;33.92;14.43;;;8.00;99.90;;;;;;5104039;28;20037;-72
2024/03/05 10:06:07;;;;;;;34.63;13.50;;;8.00;99.90;;;;;;5083632;28;20050;-71
2024/03/05 10:08:33;;;;;;;37.28;13.82;;;8.00;99.90;;;;;;5103992;28;20499;-73
2024/03/05 10:11:00;;;;;;;36.90;14.10;;;8.00;99.90;;;;;;5085463;28;20046;-72
2024/03/05 10:13:32;;;;;;;34.80;14.27;;;8.00;99.90;;;;;;5086498;28;20031;-75
2024/03/05 10:16:14;;;;;;;40.72;14.43;;;8.00;99.90;;;;;;5108630;28;20057;-72
2024/03/05 10:18:39;;;;;;;37.63;14.18;;;8.10;99.90;;;;;;5089134;28;20028;-73
2024/03/05 10:21:21;;;;;;;40.83;15.18;;;8.10;99.90;;;;;;5089079;28;20050;-74
2024/03/05 10:23:55;;;;;;;38.10;14.65;;;8.20;99.90;;;;;;5085805;28;20035;-75
2024/03/05 10:26:24;;;;;;;39.28;15.38;;;8.20;99.90;;;;;;5081369;28;20039;-74
2024/03/05 10:28:51;;;;;;;36.42;15.38;;;8.20;99.90;;;;;;5088231;28;20039;-74
2024/03/05 10:31:25;;;;;;;36.92;14.82;;;8.30;99.90;;;;;;5086225;28;20039;-72
2024/03/05 10:33:53;;;;;;;35.50;13.57;;;8.40;99.90;;;;;;5105767;28;20036;-74
2024/03/05 10:36:38;;;;;;;29.52;13.57;;;8.40;99.90;;;;;;5084376;28;20177;-73
2024/03/05 10:39:08;;;;;;;31.88;13.20;;;8.50;99.90;;;;;;5087680;28;20044;-74
2024/03/05 10:41:38;;;;;;;30.02;12.20;;;8.50;99.90;;;;;;5105560;28;20101;-73
2024/03/05 10:44:07;;;;;;;;;;;8.60;99.90;;;;;;5082717;28;20134;-74
2024/03/05 10:46:35;;;;;;;27.23;11.20;;;8.60;99.90;;;;;;5104196;28;20025;-74
2024/03/05 10:49:07;;;;;;;27.75;11.38;;;8.50;99.90;;;;;;5105927;28;20475;-73
2024/03/05 10:51:39;;;;;;;27.63;11.23;;;8.50;99.90;;;;;;5098008;27;20044;-72
2024/03/05 10:54:05;;;;;;;30.67;12.32;;;8.50;99.90;;;;;;5087853;28;20043;-72
2024/03/05 10:56:32;;;;;;;25.20;10.60;;;8.50;99.90;;;;;;5099072;28;20035;-73
2024/03/05 11:01:42;;;;;;;23.42;10.30;;;8.60;99.90;;;;;;5105293;28;20111;-72
2024/03/05 11:04:20;;;;;;;22.35;10.13;;;8.60;99.90;;;;;;5087434;28;20039;-73
2024/03/05 11:06:52;;;;;;;22.92;9.98;;;8.70;99.90;;;;;;5079501;28;20032;-71
2024/03/05 11:09:19;;;;;;;28.00;11.43;;;8.80;99.90;;;;;;5106597;28;20034;-70
2024/03/05 11:11:53;;;;;;;26.95;11.00;;;8.90;99.90;;;;;;5087350;28;20096;-71
2024/03/05 11:14:19;;;;;;;25.60;10.73;;;8.90;99.90;;;;;;5101634;28;20059;-71
2024/03/05 11:16:57;;;;;;;22.88;10.52;;;8.90;99.90;;;;;;5105934;28;20544;-74
2024/03/05 11:19:23;;;;;;;22.98;10.10;;;8.90;99.90;;;;;;5087097;28;20100;-72
2024/03/05 11:21:49;;;;;;;25.52;10.15;;;8.90;99.90;;;;;;5087511;28;20111;-71
2024/03/05 11:24:14;;;;;;;23.83;9.32;;;8.90;99.90;;;;;;5100753;27;20114;-73
2024/03/05 11:26:40;;;;;;;22.38;8.93;;;8.90;99.90;;;;;;5104481;28;20122;-71
2024/03/05 11:29:21;;;;;;;23.55;10.30;;;8.90;99.90;;;;;;5087867;28;21231;-72
2024/03/05 11:31:47;;;;;;;23.27;10.57;;;8.90;99.90;;;;;;5083580;28;20051;-71
2024/03/05 11:34:13;;;;;;;22.45;9.40;;;8.90;99.90;;;;;;5102633;28;20039;-73
2024/03/05 11:36:40;;;;;;;21.23;10.20;;;8.90;99.90;;;;;;5102856;28;20507;-72
2024/03/05 11:39:09;;;;;;;24.65;10.10;;;8.90;99.90;;;;;;5082167;28;20039;-72
2024/03/05 11:41:41;;;;;;;22.83;10.45;;;8.90;99.90;;;;;;5102082;28;20453;-75
2024/03/05 11:44:07;;;;;;;23.35;10.88;;;8.80;99.90;;;;;;5086124;28;20384;-71
2024/03/05 11:46:47;;;;;;;26.00;10.10;;;8.80;99.90;;;;;;5083569;28;20042;-72
2024/03/05 11:49:14;;;;;;;19.70;8.95;;;8.80;99.90;;;;;;5102084;28;20038;-75
2024/03/05 11:51:41;;;;;;;21.75;9.20;;;8.80;99.90;;;;;;5082894;28;20074;-72
2024/03/05 11:54:08;;;;;;;18.08;8.57;;;8.80;99.90;;;;;;5104934;28;20030;-73
2024/03/05 11:56:35;;;;;;;18.45;8.93;;;8.80;99.90;;;;;;5098055;28;20039;-71
2024/03/05 11:59:00;;;;;;;18.67;8.88;;;8.80;99.90;;;;;;5084708;28;20046;-73
2024/03/05 12:01:29;;;;;;;26.58;9.18;;;8.90;99.90;;;;;;5081490;28;20035;-72
2024/03/05 12:04:06;;;;;;;21.10;8.85;;;8.80;99.90;;;;;;5087651;28;20040;-70
2024/03/05 12:06:43;;;;;;;19.65;8.57;;;8.80;99.90;;;;;;5074544;28;20070;-71
2024/03/05 12:09:18;;;;;;;19.02;9.38;;;8.80;99.90;;;;;;5085643;28;20024;-72
2024/03/05 12:12:02;;;;;;;16.92;8.05;;;8.80;99.90;;;;;;5102167;28;20032;-73
2024/03/05 12:14:30;;;;;;;22.00;8.80;;;8.80;99.90;;;;;;5102144;28;20063;-72
2024/03/05 12:17:03;;;;;;;20.63;9.40;;;8.90;99.90;;;;;;5086925;28;20032;-72
2024/03/05 12:19:33;;;;;;;21.33;8.52;;;8.90;99.90;;;;;;5102293;28;20042;-72
2024/03/05 12:21:59;;;;;;;22.38;9.23;;;8.90;99.90;;;;;;5102564;28;20109;-72
2024/03/05 12:24:27;;;;;;;19.95;8.43;;;8.90;99.90;;;;;;5085634;28;20065;-70
2024/03/05 12:26:57;;;;;;;20.20;8.65;;;9.00;99.90;;;;;;5084707;28;20085;-74
2024/03/05 12:29:33;;;;;;;25.40;8.63;;;9.10;99.90;;;;;;5083616;28;20031;-71
2024/03/05 12:32:07;;;;;;;17.60;7.93;;;9.10;99.90;;;;;;5084201;28;20035;-74
2024/03/05 12:34:34;;;;;;;22.33;8.82;;;9.20;99.90;;;;;;5098088;28;20036;-71
2024/03/05 12:36:59;;;;;;;16.73;6.97;;;9.20;99.90;;;;;;5084453;28;20032;-72
2024/03/05 12:39:25;;;;;;;18.30;6.65;;;9.20;99.90;;;;;;5083947;28;20049;-73
2024/03/05 12:42:21;;;;;;;14.77;6.03;;;9.20;99.90;;;;;;5086857;28;20035;-74
2024/03/05 12:44:47;;;;;;;12.23;6.28;;;9.30;99.90;;;;;;5080784;28;20115;-70
2024/03/05 12:47:16;;;;;;;13.73;6.50;;;9.30;99.90;;;;;;5102539;28;20043;-72
2024/03/05 12:49:46;;;;;;;14.07;7.10;;;9.40;99.90;;;;;;5105862;28;20036;-72
2024/03/05 12:52:22;;;;;;;15.65;6.53;;;9.40;99.90;;;;;;5085931;28;20495;-72